sensor_id;sensor_type;location;lat;lon;timestamp;P1;durP1;ratioP1;P2;durP2;ratioP2
77598;SDS011;66758;52.078;5.070;2023-12-07T00:01:39;15.10;;;9.30;;
77598;SDS011;66758;52.078;5.070;2023-12-07T00:04:04;13.80;;;7.90;;
77598;SDS011;66758;52.078;5.070;2023-12-07T00:06:29;13.87;;;8.10;;
77598;SDS011;66758;52.078;5.070;2023-12-07T00:08:55;13.03;;;8.00;;
77598;SDS011;66758;52.078;5.070;2023-12-07T00:11:23;15.50;;;8.45;;
77598;SDS011;66758;52.078;5.070;2023-12-07T00:13:49;13.97;;;7.13;;
77598;SDS011;66758;52.078;5.070;2023-12-07T00:16:14;16.65;;;8.40;;
77598;SDS011;66758;52.078;5.070;2023-12-07T00:18:40;13.53;;;7.43;;
77598;SDS011;66758;52.078;5.070;2023-12-07T00:21:07;15.07;;;7.47;;
77598;SDS011;66758;52.078;5.070;2023-12-07T00:23:33;14.05;;;7.28;;
77598;SDS011;66758;52.078;5.070;2023-12-07T00:25:58;17.57;;;8.83;;
77598;SDS011;66758;52.078;5.070;2023-12-07T00:28:24;15.07;;;8.40;;
77598;SDS011;66758;52.078;5.070;2023-12-07T00:30:49;15.67;;;8.93;;
77598;SDS011;66758;52.078;5.070;2023-12-07T00:33:14;16.80;;;8.90;;
77598;SDS011;66758;52.078;5.070;2023-12-07T00:35:41;17.17;;;9.33;;
77598;SDS011;66758;52.078;5.070;2023-12-07T00:38:08;13.77;;;8.00;;
77598;SDS011;66758;52.078;5.070;2023-12-07T00:40:33;16.92;;;8.75;;
77598;SDS011;66758;52.078;5.070;2023-12-07T00:43:01;13.67;;;8.43;;
77598;SDS011;66758;52.078;5.070;2023-12-07T00:45:28;14.68;;;7.63;;
77598;SDS011;66758;52.078;5.070;2023-12-07T00:47:53;15.50;;;8.32;;
77598;SDS011;66758;52.078;5.070;2023-12-07T00:50:19;13.00;;;8.00;;
77598;SDS011;66758;52.078;5.070;2023-12-07T00:52:44;15.10;;;9.03;;
77598;SDS011;66758;52.078;5.070;2023-12-07T00:55:10;15.17;;;8.13;;
77598;SDS011;66758;52.078;5.070;2023-12-07T00:57:35;19.87;;;9.17;;
77598;SDS011;66758;52.078;5.070;2023-12-07T01:00:01;16.43;;;9.00;;
77598;SDS011;66758;52.078;5.070;2023-12-07T01:02:26;18.23;;;9.27;;
77598;SDS011;66758;52.078;5.070;2023-12-07T01:04:52;15.15;;;8.27;;
77598;SDS011;66758;52.078;5.070;2023-12-07T01:07:18;12.30;;;8.07;;
77598;SDS011;66758;52.078;5.070;2023-12-07T01:09:43;16.57;;;8.10;;
77598;SDS011;66758;52.078;5.070;2023-12-07T01:12:09;13.23;;;7.97;;
77598;SDS011;66758;52.078;5.070;2023-12-07T01:14:34;10.90;;;7.27;;
77598;SDS011;66758;52.078;5.070;2023-12-07T01:16:59;15.40;;;8.43;;
77598;SDS011;66758;52.078;5.070;2023-12-07T01:19:25;11.38;;;7.43;;
77598;SDS011;66758;52.078;5.070;2023-12-07T01:21:50;13.43;;;7.43;;
77598;SDS011;66758;52.078;5.070;2023-12-07T01:24:15;13.83;;;6.93;;
77598;SDS011;66758;52.078;5.070;2023-12-07T01:26:41;14.80;;;7.33;;
77598;SDS011;66758;52.078;5.070;2023-12-07T01:29:07;13.57;;;7.27;;
77598;SDS011;66758;52.078;5.070;2023-12-07T01:31:32;11.10;;;6.80;;
77598;SDS011;66758;52.078;5.070;2023-12-07T01:33:58;10.65;;;6.75;;
77598;SDS011;66758;52.078;5.070;2023-12-07T01:36:24;11.00;;;6.70;;
77598;SDS011;66758;52.078;5.070;2023-12-07T01:38:50;14.48;;;6.85;;
77598;SDS011;66758;52.078;5.070;2023-12-07T01:41:15;16.00;;;7.53;;
77598;SDS011;66758;52.078;5.070;2023-12-07T01:43:44;13.98;;;7.93;;
77598;SDS011;66758;52.078;5.070;2023-12-07T01:46:11;17.23;;;8.70;;
77598;SDS011;66758;52.078;5.070;2023-12-07T01:48:36;11.82;;;7.22;;
77598;SDS011;66758;52.078;5.070;2023-12-07T01:51:02;13.77;;;7.33;;
77598;SDS011;66758;52.078;5.070;2023-12-07T01:53:28;14.90;;;7.53;;
77598;SDS011;66758;52.078;5.070;2023-12-07T01:55:54;13.70;;;7.57;;
77598;SDS011;66758;52.078;5.070;2023-12-07T01:58:20;14.38;;;7.70;;
77598;SDS011;66758;52.078;5.070;2023-12-07T02:00:46;17.37;;;8.10;;
77598;SDS011;66758;52.078;5.070;2023-12-07T02:03:12;11.70;;;7.30;;
77598;SDS011;66758;52.078;5.070;2023-12-07T02:05:40;13.10;;;6.70;;
77598;SDS011;66758;52.078;5.070;2023-12-07T02:08:07;12.45;;;6.75;;
77598;SDS011;66758;52.078;5.070;2023-12-07T02:10:33;12.60;;;6.67;;
77598;SDS011;66758;52.078;5.070;2023-12-07T02:12:58;10.90;;;6.53;;
77598;SDS011;66758;52.078;5.070;2023-12-07T02:15:23;14.47;;;8.10;;
77598;SDS011;66758;52.078;5.070;2023-12-07T02:17:52;13.80;;;8.03;;
77598;SDS011;66758;52.078;5.070;2023-12-07T02:22:54;13.73;;;8.03;;
77598;SDS011;66758;52.078;5.070;2023-12-07T02:25:32;15.38;;;7.68;;
77598;SDS011;66758;52.078;5.070;2023-12-07T02:28:05;13.13;;;7.10;;
77598;SDS011;66758;52.078;5.070;2023-12-07T02:30:32;15.70;;;7.90;;
77598;SDS011;66758;52.078;5.070;2023-12-07T02:32:58;13.90;;;7.67;;
77598;SDS011;66758;52.078;5.070;2023-12-07T02:35:23;13.20;;;6.90;;
77598;SDS011;66758;52.078;5.070;2023-12-07T02:37:50;11.33;;;6.50;;
77598;SDS011;66758;52.078;5.070;2023-12-07T02:40:22;15.27;;;7.85;;
77598;SDS011;66758;52.078;5.070;2023-12-07T02:42:50;14.23;;;6.97;;
77598;SDS011;66758;52.078;5.070;2023-12-07T02:45:17;13.00;;;7.15;;
77598;SDS011;66758;52.078;5.070;2023-12-07T02:47:43;14.37;;;8.33;;
77598;SDS011;66758;52.078;5.070;2023-12-07T02:50:10;12.88;;;7.05;;
77598;SDS011;66758;52.078;5.070;2023-12-07T02:52:36;11.65;;;7.03;;
77598;SDS011;66758;52.078;5.070;2023-12-07T02:55:02;12.40;;;6.93;;
77598;SDS011;66758;52.078;5.070;2023-12-07T02:57:28;13.20;;;7.88;;
77598;SDS011;66758;52.078;5.070;2023-12-07T02:59:54;15.00;;;7.50;;
77598;SDS011;66758;52.078;5.070;2023-12-07T03:02:20;12.00;;;6.40;;
77598;SDS011;66758;52.078;5.070;2023-12-07T03:04:45;13.83;;;7.30;;
77598;SDS011;66758;52.078;5.070;2023-12-07T03:07:11;12.10;;;7.17;;
77598;SDS011;66758;52.078;5.070;2023-12-07T03:09:36;11.67;;;7.07;;
77598;SDS011;66758;52.078;5.070;2023-12-07T03:12:02;15.47;;;7.87;;
77598;SDS011;66758;52.078;5.070;2023-12-07T03:14:29;13.90;;;7.35;;
77598;SDS011;66758;52.078;5.070;2023-12-07T03:16:54;13.80;;;7.60;;
77598;SDS011;66758;52.078;5.070;2023-12-07T03:19:19;13.75;;;7.70;;
77598;SDS011;66758;52.078;5.070;2023-12-07T03:21:45;11.50;;;7.30;;
77598;SDS011;66758;52.078;5.070;2023-12-07T03:24:10;14.70;;;8.63;;
77598;SDS011;66758;52.078;5.070;2023-12-07T03:26:36;13.27;;;7.23;;
77598;SDS011;66758;52.078;5.070;2023-12-07T03:29:02;11.45;;;7.10;;
77598;SDS011;66758;52.078;5.070;2023-12-07T03:31:28;13.98;;;8.50;;
77598;SDS011;66758;52.078;5.070;2023-12-07T03:33:54;14.50;;;7.77;;
77598;SDS011;66758;52.078;5.070;2023-12-07T03:36:20;14.50;;;8.23;;
77598;SDS011;66758;52.078;5.070;2023-12-07T03:38:45;15.90;;;7.47;;
77598;SDS011;66758;52.078;5.070;2023-12-07T03:41:11;11.67;;;6.70;;
77598;SDS011;66758;52.078;5.070;2023-12-07T03:43:36;12.93;;;7.33;;
77598;SDS011;66758;52.078;5.070;2023-12-07T03:46:05;16.00;;;7.40;;
77598;SDS011;66758;52.078;5.070;2023-12-07T03:48:31;12.20;;;7.18;;
77598;SDS011;66758;52.078;5.070;2023-12-07T03:50:57;12.27;;;7.13;;
77598;SDS011;66758;52.078;5.070;2023-12-07T03:53:23;12.00;;;7.23;;
77598;SDS011;66758;52.078;5.070;2023-12-07T03:55:48;14.43;;;8.60;;
77598;SDS011;66758;52.078;5.070;2023-12-07T03:58:13;14.67;;;8.97;;
77598;SDS011;66758;52.078;5.070;2023-12-07T04:00:39;14.10;;;8.90;;
77598;SDS011;66758;52.078;5.070;2023-12-07T04:03:05;15.57;;;8.60;;
77598;SDS011;66758;52.078;5.070;2023-12-07T04:05:31;15.93;;;8.97;;
77598;SDS011;66758;52.078;5.070;2023-12-07T04:07:56;15.20;;;9.13;;
77598;SDS011;66758;52.078;5.070;2023-12-07T04:10:22;17.67;;;8.83;;
77598;SDS011;66758;52.078;5.070;2023-12-07T04:12:47;18.33;;;9.90;;
77598;SDS011;66758;52.078;5.070;2023-12-07T04:15:13;17.50;;;9.27;;
77598;SDS011;66758;52.078;5.070;2023-12-07T04:17:38;18.57;;;9.87;;
77598;SDS011;66758;52.078;5.070;2023-12-07T04:20:04;15.17;;;8.97;;
77598;SDS011;66758;52.078;5.070;2023-12-07T04:22:30;15.50;;;9.60;;
77598;SDS011;66758;52.078;5.070;2023-12-07T04:24:56;18.95;;;10.68;;
77598;SDS011;66758;52.078;5.070;2023-12-07T04:27:21;16.33;;;9.70;;
77598;SDS011;66758;52.078;5.070;2023-12-07T04:29:46;15.93;;;9.30;;
77598;SDS011;66758;52.078;5.070;2023-12-07T04:32:12;16.63;;;10.25;;
77598;SDS011;66758;52.078;5.070;2023-12-07T04:34:37;17.30;;;10.27;;
77598;SDS011;66758;52.078;5.070;2023-12-07T04:37:03;17.10;;;9.87;;
77598;SDS011;66758;52.078;5.070;2023-12-07T04:39:28;18.63;;;9.53;;
77598;SDS011;66758;52.078;5.070;2023-12-07T04:41:54;16.75;;;9.23;;
77598;SDS011;66758;52.078;5.070;2023-12-07T04:44:19;18.07;;;9.77;;
77598;SDS011;66758;52.078;5.070;2023-12-07T04:46:45;16.63;;;10.00;;
77598;SDS011;66758;52.078;5.070;2023-12-07T04:49:10;17.63;;;9.23;;
77598;SDS011;66758;52.078;5.070;2023-12-07T04:51:36;14.27;;;9.40;;
77598;SDS011;66758;52.078;5.070;2023-12-07T04:54:02;21.37;;;10.50;;
77598;SDS011;66758;52.078;5.070;2023-12-07T04:56:27;18.33;;;9.93;;
77598;SDS011;66758;52.078;5.070;2023-12-07T04:58:53;18.90;;;10.63;;
77598;SDS011;66758;52.078;5.070;2023-12-07T05:01:18;17.90;;;9.90;;
77598;SDS011;66758;52.078;5.070;2023-12-07T05:03:44;22.48;;;12.35;;
77598;SDS011;66758;52.078;5.070;2023-12-07T05:06:10;19.65;;;12.25;;
77598;SDS011;66758;52.078;5.070;2023-12-07T05:08:36;24.35;;;12.25;;
77598;SDS011;66758;52.078;5.070;2023-12-07T05:11:02;27.90;;;12.93;;
77598;SDS011;66758;52.078;5.070;2023-12-07T05:13:27;31.67;;;14.77;;
77598;SDS011;66758;52.078;5.070;2023-12-07T05:15:52;32.17;;;14.07;;
77598;SDS011;66758;52.078;5.070;2023-12-07T05:18:18;41.28;;;14.35;;
77598;SDS011;66758;52.078;5.070;2023-12-07T05:20:43;46.07;;;16.00;;
77598;SDS011;66758;52.078;5.070;2023-12-07T05:23:09;30.97;;;14.20;;
77598;SDS011;66758;52.078;5.070;2023-12-07T05:25:34;39.30;;;14.13;;
77598;SDS011;66758;52.078;5.070;2023-12-07T05:28:00;46.58;;;16.27;;
77598;SDS011;66758;52.078;5.070;2023-12-07T05:30:25;58.80;;;17.30;;
77598;SDS011;66758;52.078;5.070;2023-12-07T05:32:50;50.00;;;16.30;;
77598;SDS011;66758;52.078;5.070;2023-12-07T05:35:16;43.90;;;16.33;;
77598;SDS011;66758;52.078;5.070;2023-12-07T05:37:41;34.92;;;15.05;;
77598;SDS011;66758;52.078;5.070;2023-12-07T05:40:07;44.37;;;15.17;;
77598;SDS011;66758;52.078;5.070;2023-12-07T05:42:34;46.38;;;14.02;;
77598;SDS011;66758;52.078;5.070;2023-12-07T05:45:00;62.07;;;16.90;;
77598;SDS011;66758;52.078;5.070;2023-12-07T05:47:26;45.13;;;13.95;;
77598;SDS011;66758;52.078;5.070;2023-12-07T05:49:51;61.07;;;16.00;;
77598;SDS011;66758;52.078;5.070;2023-12-07T05:52:17;34.97;;;13.65;;
77598;SDS011;66758;52.078;5.070;2023-12-07T05:54:42;39.93;;;14.13;;
77598;SDS011;66758;52.078;5.070;2023-12-07T05:57:08;48.23;;;15.87;;
77598;SDS011;66758;52.078;5.070;2023-12-07T05:59:37;49.88;;;14.98;;
77598;SDS011;66758;52.078;5.070;2023-12-07T06:02:07;51.95;;;14.98;;
77598;SDS011;66758;52.078;5.070;2023-12-07T06:04:33;33.33;;;14.47;;
77598;SDS011;66758;52.078;5.070;2023-12-07T06:06:59;45.05;;;14.40;;
77598;SDS011;66758;52.078;5.070;2023-12-07T06:09:24;58.13;;;16.10;;
77598;SDS011;66758;52.078;5.070;2023-12-07T06:11:49;57.03;;;16.73;;
77598;SDS011;66758;52.078;5.070;2023-12-07T06:14:15;53.05;;;14.73;;
77598;SDS011;66758;52.078;5.070;2023-12-07T06:16:41;44.50;;;14.77;;
77598;SDS011;66758;52.078;5.070;2023-12-07T06:19:08;49.60;;;15.40;;
77598;SDS011;66758;52.078;5.070;2023-12-07T06:21:33;39.88;;;14.57;;
77598;SDS011;66758;52.078;5.070;2023-12-07T06:23:58;46.07;;;16.87;;
77598;SDS011;66758;52.078;5.070;2023-12-07T06:26:24;37.65;;;14.80;;
77598;SDS011;66758;52.078;5.070;2023-12-07T06:28:51;60.80;;;17.50;;
77598;SDS011;66758;52.078;5.070;2023-12-07T06:31:16;46.28;;;16.55;;
77598;SDS011;66758;52.078;5.070;2023-12-07T06:33:46;64.50;;;16.42;;
77598;SDS011;66758;52.078;5.070;2023-12-07T06:36:17;36.87;;;14.77;;
77598;SDS011;66758;52.078;5.070;2023-12-07T06:38:44;50.45;;;16.73;;
77598;SDS011;66758;52.078;5.070;2023-12-07T06:41:09;60.80;;;17.73;;
77598;SDS011;66758;52.078;5.070;2023-12-07T06:43:35;63.33;;;17.10;;
77598;SDS011;66758;52.078;5.070;2023-12-07T06:46:00;68.73;;;18.83;;
77598;SDS011;66758;52.078;5.070;2023-12-07T06:48:26;38.47;;;16.00;;
77598;SDS011;66758;52.078;5.070;2023-12-07T06:50:51;64.20;;;20.20;;
77598;SDS011;66758;52.078;5.070;2023-12-07T06:53:17;46.00;;;16.88;;
77598;SDS011;66758;52.078;5.070;2023-12-07T06:55:43;67.43;;;20.50;;
77598;SDS011;66758;52.078;5.070;2023-12-07T06:58:09;68.87;;;20.67;;
77598;SDS011;66758;52.078;5.070;2023-12-07T07:00:35;72.15;;;21.17;;
77598;SDS011;66758;52.078;5.070;2023-12-07T07:03:01;81.13;;;21.77;;
77598;SDS011;66758;52.078;5.070;2023-12-07T07:05:26;80.18;;;18.90;;
77598;SDS011;66758;52.078;5.070;2023-12-07T07:07:52;73.67;;;20.67;;
77598;SDS011;66758;52.078;5.070;2023-12-07T07:10:18;46.80;;;16.57;;
77598;SDS011;66758;52.078;5.070;2023-12-07T07:12:43;63.87;;;19.50;;
77598;SDS011;66758;52.078;5.070;2023-12-07T07:15:08;59.30;;;18.40;;
77598;SDS011;66758;52.078;5.070;2023-12-07T07:17:34;59.13;;;18.53;;
77598;SDS011;66758;52.078;5.070;2023-12-07T07:20:00;60.55;;;18.25;;
77598;SDS011;66758;52.078;5.070;2023-12-07T07:22:26;71.78;;;19.73;;
77598;SDS011;66758;52.078;5.070;2023-12-07T07:24:52;60.97;;;18.70;;
77598;SDS011;66758;52.078;5.070;2023-12-07T07:27:17;92.53;;;20.17;;
77598;SDS011;66758;52.078;5.070;2023-12-07T07:29:43;43.77;;;15.33;;
77598;SDS011;66758;52.078;5.070;2023-12-07T07:32:09;46.30;;;14.98;;
77598;SDS011;66758;52.078;5.070;2023-12-07T07:34:35;50.15;;;16.38;;
77598;SDS011;66758;52.078;5.070;2023-12-07T07:37:00;34.17;;;12.87;;
77598;SDS011;66758;52.078;5.070;2023-12-07T07:39:26;76.57;;;17.60;;
77598;SDS011;66758;52.078;5.070;2023-12-07T07:41:51;45.53;;;14.05;;
77598;SDS011;66758;52.078;5.070;2023-12-07T07:44:17;46.60;;;12.77;;
77598;SDS011;66758;52.078;5.070;2023-12-07T07:46:42;59.63;;;15.20;;
77598;SDS011;66758;52.078;5.070;2023-12-07T07:49:07;42.97;;;14.17;;
77598;SDS011;66758;52.078;5.070;2023-12-07T07:51:33;56.30;;;15.93;;
77598;SDS011;66758;52.078;5.070;2023-12-07T07:53:58;34.30;;;15.27;;
77598;SDS011;66758;52.078;5.070;2023-12-07T07:56:24;55.30;;;15.30;;
77598;SDS011;66758;52.078;5.070;2023-12-07T07:58:50;58.40;;;16.25;;
77598;SDS011;66758;52.078;5.070;2023-12-07T08:01:15;57.53;;;16.90;;
77598;SDS011;66758;52.078;5.070;2023-12-07T08:03:41;54.33;;;15.20;;
77598;SDS011;66758;52.078;5.070;2023-12-07T08:06:06;47.90;;;15.17;;
77598;SDS011;66758;52.078;5.070;2023-12-07T08:08:32;43.90;;;14.95;;
77598;SDS011;66758;52.078;5.070;2023-12-07T08:10:57;61.50;;;17.50;;
77598;SDS011;66758;52.078;5.070;2023-12-07T08:13:23;69.57;;;17.87;;
77598;SDS011;66758;52.078;5.070;2023-12-07T08:15:48;53.55;;;13.77;;
77598;SDS011;66758;52.078;5.070;2023-12-07T08:18:14;55.00;;;13.47;;
77598;SDS011;66758;52.078;5.070;2023-12-07T08:20:40;40.47;;;11.87;;
77598;SDS011;66758;52.078;5.070;2023-12-07T08:23:06;40.42;;;12.05;;
77598;SDS011;66758;52.078;5.070;2023-12-07T08:25:31;44.90;;;13.33;;
77598;SDS011;66758;52.078;5.070;2023-12-07T08:27:59;37.28;;;11.98;;
77598;SDS011;66758;52.078;5.070;2023-12-07T08:30:25;33.13;;;9.10;;
77598;SDS011;66758;52.078;5.070;2023-12-07T08:32:50;38.87;;;10.90;;
77598;SDS011;66758;52.078;5.070;2023-12-07T08:35:15;33.72;;;9.18;;
77598;SDS011;66758;52.078;5.070;2023-12-07T08:37:41;29.03;;;9.70;;
77598;SDS011;66758;52.078;5.070;2023-12-07T08:40:06;29.90;;;9.40;;
77598;SDS011;66758;52.078;5.070;2023-12-07T08:42:32;36.95;;;9.32;;
77598;SDS011;66758;52.078;5.070;2023-12-07T08:44:59;24.47;;;9.00;;
77598;SDS011;66758;52.078;5.070;2023-12-07T08:47:24;32.13;;;8.32;;
77598;SDS011;66758;52.078;5.070;2023-12-07T08:49:52;36.97;;;8.73;;
77598;SDS011;66758;52.078;5.070;2023-12-07T08:52:18;38.03;;;11.33;;
77598;SDS011;66758;52.078;5.070;2023-12-07T08:54:43;25.47;;;8.97;;
77598;SDS011;66758;52.078;5.070;2023-12-07T08:57:09;35.30;;;9.32;;
77598;SDS011;66758;52.078;5.070;2023-12-07T08:59:35;40.40;;;10.97;;
77598;SDS011;66758;52.078;5.070;2023-12-07T09:02:00;25.77;;;7.93;;
77598;SDS011;66758;52.078;5.070;2023-12-07T09:04:28;46.85;;;11.20;;
77598;SDS011;66758;52.078;5.070;2023-12-07T09:06:54;29.03;;;9.77;;
77598;SDS011;66758;52.078;5.070;2023-12-07T09:09:19;38.67;;;9.20;;
77598;SDS011;66758;52.078;5.070;2023-12-07T09:11:45;34.77;;;9.63;;
77598;SDS011;66758;52.078;5.070;2023-12-07T09:14:11;34.30;;;9.13;;
77598;SDS011;66758;52.078;5.070;2023-12-07T09:16:42;27.33;;;8.43;;
77598;SDS011;66758;52.078;5.070;2023-12-07T09:19:10;27.63;;;8.57;;
77598;SDS011;66758;52.078;5.070;2023-12-07T09:21:35;31.05;;;9.10;;
77598;SDS011;66758;52.078;5.070;2023-12-07T09:24:01;32.73;;;10.33;;
77598;SDS011;66758;52.078;5.070;2023-12-07T09:26:26;32.53;;;8.43;;
77598;SDS011;66758;52.078;5.070;2023-12-07T09:28:52;46.38;;;11.40;;
77598;SDS011;66758;52.078;5.070;2023-12-07T09:31:18;52.10;;;11.60;;
77598;SDS011;66758;52.078;5.070;2023-12-07T09:33:43;53.20;;;11.10;;
77598;SDS011;66758;52.078;5.070;2023-12-07T09:36:08;30.43;;;8.40;;
77598;SDS011;66758;52.078;5.070;2023-12-07T09:38:36;47.00;;;12.48;;
77598;SDS011;66758;52.078;5.070;2023-12-07T09:41:02;50.75;;;11.52;;
77598;SDS011;66758;52.078;5.070;2023-12-07T09:43:28;40.92;;;10.98;;
77598;SDS011;66758;52.078;5.070;2023-12-07T09:45:54;44.37;;;10.87;;
77598;SDS011;66758;52.078;5.070;2023-12-07T09:48:21;46.08;;;10.95;;
77598;SDS011;66758;52.078;5.070;2023-12-07T09:50:46;39.63;;;10.93;;
77598;SDS011;66758;52.078;5.070;2023-12-07T09:53:12;31.90;;;9.95;;
77598;SDS011;66758;52.078;5.070;2023-12-07T09:55:38;35.27;;;10.73;;
77598;SDS011;66758;52.078;5.070;2023-12-07T09:58:04;52.45;;;13.30;;
77598;SDS011;66758;52.078;5.070;2023-12-07T10:00:31;40.97;;;10.25;;
77598;SDS011;66758;52.078;5.070;2023-12-07T10:02:58;25.00;;;8.20;;
77598;SDS011;66758;52.078;5.070;2023-12-07T10:05:23;32.05;;;8.40;;
77598;SDS011;66758;52.078;5.070;2023-12-07T10:07:49;31.30;;;9.50;;
77598;SDS011;66758;52.078;5.070;2023-12-07T10:10:16;33.88;;;9.38;;
77598;SDS011;66758;52.078;5.070;2023-12-07T10:12:47;31.15;;;9.45;;
77598;SDS011;66758;52.078;5.070;2023-12-07T10:15:17;35.15;;;10.88;;
77598;SDS011;66758;52.078;5.070;2023-12-07T10:20:15;29.55;;;10.13;;
77598;SDS011;66758;52.078;5.070;2023-12-07T10:22:41;34.17;;;8.85;;
77598;SDS011;66758;52.078;5.070;2023-12-07T10:25:07;21.60;;;8.20;;
77598;SDS011;66758;52.078;5.070;2023-12-07T10:27:35;24.98;;;7.55;;
77598;SDS011;66758;52.078;5.070;2023-12-07T10:30:00;17.17;;;5.80;;
77598;SDS011;66758;52.078;5.070;2023-12-07T10:32:26;22.97;;;7.93;;
77598;SDS011;66758;52.078;5.070;2023-12-07T10:34:52;34.40;;;10.30;;
77598;SDS011;66758;52.078;5.070;2023-12-07T10:37:18;35.70;;;9.95;;
77598;SDS011;66758;52.078;5.070;2023-12-07T10:39:47;34.80;;;10.40;;
77598;SDS011;66758;52.078;5.070;2023-12-07T10:42:12;38.35;;;11.43;;
77598;SDS011;66758;52.078;5.070;2023-12-07T10:44:41;29.80;;;9.13;;
77598;SDS011;66758;52.078;5.070;2023-12-07T10:47:10;34.42;;;10.98;;
77598;SDS011;66758;52.078;5.070;2023-12-07T10:49:38;40.22;;;12.32;;
77598;SDS011;66758;52.078;5.070;2023-12-07T10:52:08;40.07;;;11.57;;
77598;SDS011;66758;52.078;5.070;2023-12-07T10:55:02;31.05;;;9.38;;
77598;SDS011;66758;52.078;5.070;2023-12-07T10:57:31;42.75;;;10.40;;
77598;SDS011;66758;52.078;5.070;2023-12-07T10:59:59;41.47;;;13.27;;
77598;SDS011;66758;52.078;5.070;2023-12-07T11:02:26;49.08;;;12.65;;
77598;SDS011;66758;52.078;5.070;2023-12-07T11:04:55;49.70;;;12.50;;
77598;SDS011;66758;52.078;5.070;2023-12-07T11:07:22;46.92;;;12.73;;
77598;SDS011;66758;52.078;5.070;2023-12-07T11:09:58;53.58;;;13.45;;
77598;SDS011;66758;52.078;5.070;2023-12-07T11:15:36;44.50;;;12.68;;
77598;SDS011;66758;52.078;5.070;2023-12-07T11:18:02;48.37;;;12.17;;
77598;SDS011;66758;52.078;5.070;2023-12-07T11:20:44;47.83;;;13.07;;
77598;SDS011;66758;52.078;5.070;2023-12-07T11:23:11;48.60;;;14.00;;
77598;SDS011;66758;52.078;5.070;2023-12-07T11:25:41;44.20;;;13.03;;
77598;SDS011;66758;52.078;5.070;2023-12-07T11:28:10;45.90;;;12.85;;
77598;SDS011;66758;52.078;5.070;2023-12-07T11:30:49;50.47;;;14.32;;
77598;SDS011;66758;52.078;5.070;2023-12-07T11:33:18;47.03;;;13.30;;
77598;SDS011;66758;52.078;5.070;2023-12-07T11:38:32;53.40;;;14.63;;
77598;SDS011;66758;52.078;5.070;2023-12-07T11:40:57;63.75;;;17.50;;
77598;SDS011;66758;52.078;5.070;2023-12-07T11:45:58;44.25;;;15.13;;
77598;SDS011;66758;52.078;5.070;2023-12-07T11:48:24;53.00;;;15.55;;
77598;SDS011;66758;52.078;5.070;2023-12-07T11:50:58;54.40;;;14.87;;
77598;SDS011;66758;52.078;5.070;2023-12-07T11:53:24;41.63;;;13.82;;
77598;SDS011;66758;52.078;5.070;2023-12-07T11:55:51;38.92;;;12.68;;
77598;SDS011;66758;52.078;5.070;2023-12-07T11:58:17;39.10;;;12.57;;
77598;SDS011;66758;52.078;5.070;2023-12-07T12:00:43;48.35;;;14.18;;
77598;SDS011;66758;52.078;5.070;2023-12-07T12:03:11;43.80;;;15.35;;
77598;SDS011;66758;52.078;5.070;2023-12-07T12:05:37;45.70;;;14.25;;
77598;SDS011;66758;52.078;5.070;2023-12-07T12:08:07;59.47;;;16.07;;
77598;SDS011;66758;52.078;5.070;2023-12-07T12:10:32;48.83;;;13.88;;
77598;SDS011;66758;52.078;5.070;2023-12-07T12:13:01;52.87;;;14.13;;
77598;SDS011;66758;52.078;5.070;2023-12-07T12:15:29;45.85;;;15.27;;
77598;SDS011;66758;52.078;5.070;2023-12-07T12:17:58;47.83;;;14.30;;
77598;SDS011;66758;52.078;5.070;2023-12-07T12:20:25;42.45;;;14.68;;
77598;SDS011;66758;52.078;5.070;2023-12-07T12:22:51;48.03;;;15.65;;
77598;SDS011;66758;52.078;5.070;2023-12-07T12:25:23;43.40;;;13.57;;
77598;SDS011;66758;52.078;5.070;2023-12-07T12:27:58;48.35;;;15.65;;
77598;SDS011;66758;52.078;5.070;2023-12-07T12:30:28;41.47;;;14.40;;
77598;SDS011;66758;52.078;5.070;2023-12-07T12:32:55;45.42;;;16.20;;
77598;SDS011;66758;52.078;5.070;2023-12-07T12:35:23;52.22;;;14.90;;
77598;SDS011;66758;52.078;5.070;2023-12-07T12:37:50;35.13;;;13.23;;
77598;SDS011;66758;52.078;5.070;2023-12-07T12:40:19;42.78;;;14.77;;
77598;SDS011;66758;52.078;5.070;2023-12-07T12:42:47;39.25;;;13.98;;
77598;SDS011;66758;52.078;5.070;2023-12-07T12:45:14;37.27;;;14.10;;
77598;SDS011;66758;52.078;5.070;2023-12-07T12:47:40;36.85;;;12.73;;
77598;SDS011;66758;52.078;5.070;2023-12-07T12:50:06;35.22;;;12.77;;
77598;SDS011;66758;52.078;5.070;2023-12-07T12:52:32;40.75;;;14.52;;
77598;SDS011;66758;52.078;5.070;2023-12-07T12:54:58;36.97;;;13.63;;
77598;SDS011;66758;52.078;5.070;2023-12-07T12:57:24;36.05;;;13.32;;
77598;SDS011;66758;52.078;5.070;2023-12-07T12:59:50;29.40;;;11.90;;
77598;SDS011;66758;52.078;5.070;2023-12-07T13:02:16;38.38;;;13.23;;
77598;SDS011;66758;52.078;5.070;2023-12-07T13:04:43;33.72;;;13.75;;
77598;SDS011;66758;52.078;5.070;2023-12-07T13:07:11;39.97;;;13.63;;
77598;SDS011;66758;52.078;5.070;2023-12-07T13:09:39;35.20;;;13.50;;
77598;SDS011;66758;52.078;5.070;2023-12-07T13:12:05;34.53;;;13.52;;
77598;SDS011;66758;52.078;5.070;2023-12-07T13:14:32;35.28;;;13.13;;
77598;SDS011;66758;52.078;5.070;2023-12-07T13:17:03;33.83;;;13.23;;
77598;SDS011;66758;52.078;5.070;2023-12-07T13:19:29;43.08;;;16.20;;
77598;SDS011;66758;52.078;5.070;2023-12-07T13:21:55;38.43;;;14.37;;
77598;SDS011;66758;52.078;5.070;2023-12-07T13:24:20;36.70;;;13.20;;
77598;SDS011;66758;52.078;5.070;2023-12-07T13:26:46;43.83;;;15.70;;
77598;SDS011;66758;52.078;5.070;2023-12-07T13:29:13;34.60;;;13.80;;
77598;SDS011;66758;52.078;5.070;2023-12-07T13:31:39;32.20;;;13.40;;
77598;SDS011;66758;52.078;5.070;2023-12-07T13:34:04;43.80;;;16.60;;
77598;SDS011;66758;52.078;5.070;2023-12-07T13:36:30;43.77;;;16.87;;
77598;SDS011;66758;52.078;5.070;2023-12-07T13:38:56;41.93;;;15.57;;
77598;SDS011;66758;52.078;5.070;2023-12-07T13:41:22;40.58;;;16.27;;
77598;SDS011;66758;52.078;5.070;2023-12-07T13:43:48;33.33;;;14.98;;
77598;SDS011;66758;52.078;5.070;2023-12-07T13:46:15;35.67;;;14.20;;
77598;SDS011;66758;52.078;5.070;2023-12-07T13:48:41;34.15;;;13.70;;
77598;SDS011;66758;52.078;5.070;2023-12-07T13:51:07;37.90;;;14.23;;
77598;SDS011;66758;52.078;5.070;2023-12-07T13:53:33;39.00;;;16.90;;
77598;SDS011;66758;52.078;5.070;2023-12-07T13:55:59;37.58;;;15.32;;
77598;SDS011;66758;52.078;5.070;2023-12-07T13:58:24;40.50;;;14.50;;
77598;SDS011;66758;52.078;5.070;2023-12-07T14:00:50;34.88;;;15.18;;
77598;SDS011;66758;52.078;5.070;2023-12-07T14:03:19;35.63;;;14.80;;
77598;SDS011;66758;52.078;5.070;2023-12-07T14:05:45;32.47;;;14.57;;
77598;SDS011;66758;52.078;5.070;2023-12-07T14:08:11;37.08;;;15.13;;
77598;SDS011;66758;52.078;5.070;2023-12-07T14:10:36;33.30;;;12.97;;
77598;SDS011;66758;52.078;5.070;2023-12-07T14:13:05;33.57;;;14.00;;
77598;SDS011;66758;52.078;5.070;2023-12-07T14:15:30;30.10;;;13.07;;
77598;SDS011;66758;52.078;5.070;2023-12-07T14:18:00;33.33;;;12.87;;
77598;SDS011;66758;52.078;5.070;2023-12-07T14:20:26;38.25;;;15.73;;
77598;SDS011;66758;52.078;5.070;2023-12-07T14:22:53;33.28;;;14.50;;
77598;SDS011;66758;52.078;5.070;2023-12-07T14:25:22;38.30;;;15.68;;
77598;SDS011;66758;52.078;5.070;2023-12-07T14:27:48;33.17;;;14.95;;
77598;SDS011;66758;52.078;5.070;2023-12-07T14:30:14;35.73;;;15.40;;
77598;SDS011;66758;52.078;5.070;2023-12-07T14:32:42;36.63;;;14.50;;
77598;SDS011;66758;52.078;5.070;2023-12-07T14:35:13;38.28;;;15.05;;